This is the latest recevied weather packets stored in our database for station/object SP8MDH-L. If no packets are shown the sender has not sent any weather packets the latest 10 day(s).
| Time | Temp. | Humidity | Pressure | Rain* | Wind** | Luminosity | Snow |
|---|---|---|---|---|---|---|---|
| 1788193261 | 30.56° C | 33% | 1016.1 hPa | - | - | - | - |
| 1788191761 | 31.11° C | 32% | 1015.2 hPa | - | - | - | - |
| 1788190261 | 31.11° C | 32% | 1014.6 hPa | - | - | - | - |
| 1788188761 | 31.11° C | 32% | 1014.5 hPa | - | - | - | - |
| 1788187260 | 31.11° C | 32% | 1014.7 hPa | - | - | - | - |
| 1788185760 | 31.11° C | 32% | 1014.3 hPa | - | - | - | - |
| 1788184260 | 31.11° C | 32% | 1014.4 hPa | - | - | - | - |
| 1788182760 | 31.11° C | 32% | 1014.5 hPa | - | - | - | - |
| 1788181260 | 31.11° C | 33% | 1014.6 hPa | - | - | - | - |
| 1788179760 | 31.11° C | 32% | 1014.7 hPa | - | - | - | - |
| 1788178260 | 30.56° C | 33% | 1014.8 hPa | - | - | - | - |
| 1788176760 | 30.56° C | 33% | 1014.9 hPa | - | - | - | - |
| 1788175260 | 30.56° C | 33% | 1015.1 hPa | - | - | - | - |
| 1788173760 | 30.56° C | 33% | 1015.3 hPa | - | - | - | - |
| 1788172259 | 30° C | 32% | 1015.4 hPa | - | - | - | - |
| 1788170759 | 30° C | 32% | 1015.4 hPa | - | - | - | - |
| 1788169259 | 29.44° C | 33% | 1015.4 hPa | - | - | - | - |
| 1788167759 | 29.44° C | 32% | 1015.5 hPa | - | - | - | - |
| 1788166259 | 29.44° C | 32% | 1015.6 hPa | - | - | - | - |
| 1788164759 | 28.89° C | 32% | 1015.9 hPa | - | - | - | - |
| 1788163259 | 28.89° C | 32% | 1015.9 hPa | - | - | - | - |
| 1788161758 | 28.33° C | 32% | 1016 hPa | - | - | - | - |
| 1788160258 | 28.33° C | 32% | 1015.8 hPa | - | - | - | - |
| 1788158758 | 27.78° C | 32% | 1016 hPa | - | - | - | - |
| 1788157258 | 27.78° C | 31% | 1016 hPa | - | - | - | - |
* Rain since midnight (hover to see other rain measurements)
** Current wind speed in m/s (hover to see current wind gust speed)